Alledonia, Ohio
Current Conditions -  °F | °C
As of 8:53 AM on Tuesday 21 Oct 2014 (Local Time) from KHLG Reporting Station
Haze Haze  
Wind Chill: 50°   Ceiling: 600
Heat Index: 50°   Visibility: 2.5mi
Dew Point: 48°   Wind: 5mph
Humidity: 93%   Direction: 240°WSW
Pressure: 29.88"   Gusts: NA
Location:  39.9°N, 80.97°W
Report Text: KHLG 211253Z 24004KT 2 1/2SM BR OVC006 10/09 A2988 RMK AO2 SLP123 T01000089
Loading
Personal Weather Stations






























Interactive Weather Map
Tropical Storm Tracking
New forecast layout! Learn more

10-Day Weather Forecast

Advertisements
Track Severe Weather on mobile